GLO7472 SBBE-SMJP
Flight info
| Callsign | GLO7472 |
|---|---|
| Flight time | 1h 29m |
| Altitude | 38000 |
| Route | KOGVU UZ41 OTONI UG449 VILAS DCT ZY DCT |
| Aircraft | B38M/M-DFGHIJ4J7KLORWXY/LB1 |
Departure
| Time | 2026-04-22 01:39 |
|---|---|
| Airport | Val de Cans/Júlio Cezar Ribeiro International Airport (SBBE) |
Arrival
| Time | 2026-04-22 03:08 |
|---|---|
| Airport | Johan Adolf Pengel International Airport (SMJP) |
| Time | Latitude | Longitude | Altitude | Speed | Heading |
|---|---|---|---|---|---|
| 2026-04-22 01:14 | -1.38959 | -48.47868 | 67 ft | 0 kts | 272° |
| 2026-04-22 01:32 | -1.38960 | -48.47850 | 65 ft | 3 kts | 274° |
| 2026-04-22 01:32 | -1.38965 | -48.47828 | 63 ft | 4 kts | 309° |
| 2026-04-22 01:32 | -1.38985 | -48.47819 | 58 ft | 4 kts | 1° |
| 2026-04-22 01:33 | -1.38999 | -48.47819 | 59 ft | 1 kts | 4° |
| 2026-04-22 01:33 | -1.39000 | -48.47820 | 59 ft | 0 kts | 4° |
| 2026-04-22 01:36 | -1.38999 | -48.47819 | 59 ft | 1 kts | 4° |
| 2026-04-22 01:36 | -1.38944 | -48.47816 | 65 ft | 16 kts | 5° |
| 2026-04-22 01:36 | -1.38774 | -48.47807 | 63 ft | 32 kts | 6° |
| 2026-04-22 01:37 | -1.38655 | -48.47837 | 66 ft | 11 kts | 270° |
| 2026-04-22 01:37 | -1.38692 | -48.47959 | 65 ft | 21 kts | 263° |
| 2026-04-22 01:37 | -1.38672 | -48.48124 | 61 ft | 26 kts | 271° |
| 2026-04-22 01:37 | -1.38705 | -48.48249 | 66 ft | 17 kts | 226° |
| 2026-04-22 01:38 | -1.38790 | -48.48340 | 66 ft | 16 kts | 226° |
| 2026-04-22 01:38 | -1.38815 | -48.48407 | 62 ft | 12 kts | 265° |
| 2026-04-22 01:38 | -1.38787 | -48.48480 | 65 ft | 14 kts | 6° |
| 2026-04-22 01:38 | -1.38726 | -48.48429 | 58 ft | 36 kts | 43° |
| 2026-04-22 01:39 | -1.38347 | -48.48048 | 67 ft | 116 kts | 45° |
| 2026-04-22 01:39 | -1.37617 | -48.47314 | 78 ft | 178 kts | 45° |
| 2026-04-22 01:39 | -1.36748 | -48.46485 | 623 ft | 190 kts | 44° |
| 2026-04-22 01:39 | -1.35804 | -48.45609 | 1589 ft | 175 kts | 46° |
| 2026-04-22 01:40 | -1.34867 | -48.44721 | 2182 ft | 204 kts | 46° |
| 2026-04-22 01:40 | -1.33774 | -48.43675 | 2840 ft | 228 kts | 46° |
| 2026-04-22 01:40 | -1.32519 | -48.42598 | 3624 ft | 250 kts | 31° |
| 2026-04-22 01:40 | -1.30761 | -48.42202 | 4359 ft | 275 kts | 355° |
| 2026-04-22 01:41 | -1.29009 | -48.42918 | 5473 ft | 278 kts | 320° |
| 2026-04-22 01:41 | -1.27869 | -48.44490 | 6466 ft | 286 kts | 291° |
| 2026-04-22 01:41 | -1.27160 | -48.46366 | 7441 ft | 290 kts | 292° |
| 2026-04-22 01:41 | -1.26344 | -48.48224 | 8431 ft | 294 kts | 294° |
| 2026-04-22 01:42 | -1.25505 | -48.50085 | 9413 ft | 299 kts | 294° |
| 2026-04-22 01:42 | -1.24632 | -48.51991 | 10328 ft | 306 kts | 294° |
| 2026-04-22 01:42 | -1.23695 | -48.53999 | 10910 ft | 323 kts | 295° |
| 2026-04-22 01:42 | -1.22726 | -48.56039 | 11524 ft | 336 kts | 295° |
| 2026-04-22 01:43 | -1.21720 | -48.58168 | 12368 ft | 339 kts | 295° |
| 2026-04-22 01:43 | -1.20720 | -48.60313 | 13202 ft | 344 kts | 295° |
| 2026-04-22 01:43 | -1.19701 | -48.62496 | 13983 ft | 348 kts | 295° |
| 2026-04-22 01:43 | -1.18674 | -48.64700 | 14725 ft | 351 kts | 295° |
| 2026-04-22 01:44 | -1.17646 | -48.66913 | 15501 ft | 352 kts | 295° |
| 2026-04-22 01:44 | -1.16606 | -48.69148 | 16200 ft | 356 kts | 295° |
| 2026-04-22 01:44 | -1.15561 | -48.71399 | 16905 ft | 359 kts | 295° |
| 2026-04-22 01:44 | -1.14503 | -48.73672 | 17586 ft | 362 kts | 295° |
| 2026-04-22 01:45 | -1.13441 | -48.75959 | 18283 ft | 364 kts | 295° |
| 2026-04-22 01:45 | -1.12369 | -48.78268 | 18833 ft | 368 kts | 295° |
| 2026-04-22 01:45 | -1.11297 | -48.80577 | 19356 ft | 372 kts | 295° |
| 2026-04-22 01:45 | -1.10191 | -48.82957 | 19886 ft | 376 kts | 295° |
| 2026-04-22 01:46 | -1.09109 | -48.85287 | 20402 ft | 379 kts | 295° |
| 2026-04-22 01:46 | -1.07983 | -48.87715 | 20915 ft | 383 kts | 295° |
| 2026-04-22 01:46 | -1.06857 | -48.90139 | 21412 ft | 387 kts | 295° |
| 2026-04-22 01:46 | -1.05719 | -48.92587 | 21898 ft | 390 kts | 295° |
| 2026-04-22 01:47 | -1.04567 | -48.95069 | 22414 ft | 393 kts | 294° |
| 2026-04-22 01:47 | -1.03411 | -48.97558 | 22887 ft | 397 kts | 294° |
| 2026-04-22 01:47 | -1.02266 | -49.00025 | 23353 ft | 400 kts | 294° |
| 2026-04-22 01:47 | -1.01069 | -49.02603 | 23793 ft | 404 kts | 294° |
| 2026-04-22 01:48 | -0.99878 | -49.05164 | 24176 ft | 407 kts | 294° |
| 2026-04-22 01:48 | -0.98683 | -49.07739 | 24573 ft | 410 kts | 294° |
| 2026-04-22 01:48 | -0.97481 | -49.10329 | 24972 ft | 412 kts | 294° |
| 2026-04-22 01:48 | -0.96682 | -49.12051 | 25227 ft | 414 kts | 294° |
| 2026-04-22 01:49 | -0.95065 | -49.15533 | 25744 ft | 418 kts | 294° |
| 2026-04-22 01:49 | -0.93836 | -49.18179 | 26124 ft | 421 kts | 294° |
| 2026-04-22 01:49 | -0.93002 | -49.19978 | 26383 ft | 423 kts | 294° |
| 2026-04-22 01:49 | -0.91355 | -49.23526 | 26876 ft | 427 kts | 294° |
| 2026-04-22 01:50 | -0.90100 | -49.26230 | 27245 ft | 430 kts | 294° |
| 2026-04-22 01:50 | -0.89250 | -49.28062 | 27490 ft | 432 kts | 294° |
| 2026-04-22 01:50 | -0.87983 | -49.30790 | 27850 ft | 435 kts | 295° |
| 2026-04-22 01:50 | -0.86701 | -49.33552 | 28200 ft | 438 kts | 294° |
| 2026-04-22 01:51 | -0.85437 | -49.36278 | 28558 ft | 440 kts | 294° |
| 2026-04-22 01:51 | -0.84146 | -49.39061 | 28897 ft | 443 kts | 294° |
| 2026-04-22 01:51 | -0.82847 | -49.41860 | 29224 ft | 446 kts | 294° |
| 2026-04-22 01:51 | -0.81533 | -49.44691 | 29561 ft | 449 kts | 294° |
| 2026-04-22 01:52 | -0.80216 | -49.47529 | 29874 ft | 451 kts | 295° |
| 2026-04-22 01:52 | -0.78894 | -49.50379 | 30183 ft | 454 kts | 295° |
| 2026-04-22 01:52 | -0.77559 | -49.53255 | 30447 ft | 457 kts | 294° |
| 2026-04-22 01:52 | -0.76223 | -49.56137 | 30720 ft | 459 kts | 295° |
| 2026-04-22 01:53 | -0.74871 | -49.59049 | 30994 ft | 461 kts | 295° |
| 2026-04-22 01:53 | -0.73522 | -49.61958 | 31274 ft | 463 kts | 295° |
| 2026-04-22 01:53 | -0.72160 | -49.64893 | 31546 ft | 466 kts | 295° |
| 2026-04-22 01:53 | -0.70797 | -49.67831 | 31817 ft | 468 kts | 295° |
| 2026-04-22 01:54 | -0.69428 | -49.70782 | 32077 ft | 470 kts | 295° |
| 2026-04-22 01:54 | -0.68049 | -49.73756 | 32335 ft | 472 kts | 295° |
| 2026-04-22 01:54 | -0.66666 | -49.76738 | 32603 ft | 474 kts | 295° |
| 2026-04-22 01:54 | -0.65278 | -49.79731 | 32875 ft | 476 kts | 295° |
| 2026-04-22 01:55 | -0.63651 | -49.82608 | 33099 ft | 477 kts | 308° |
| 2026-04-22 01:55 | -0.61398 | -49.84969 | 33375 ft | 476 kts | 320° |
| 2026-04-22 01:55 | -0.58861 | -49.87130 | 33558 ft | 480 kts | 321° |
| 2026-04-22 01:55 | -0.56293 | -49.89279 | 33796 ft | 482 kts | 321° |
| 2026-04-22 01:56 | -0.53703 | -49.91417 | 34024 ft | 484 kts | 322° |
| 2026-04-22 01:56 | -0.51094 | -49.93550 | 34247 ft | 485 kts | 322° |
| 2026-04-22 01:56 | -0.48481 | -49.95679 | 34546 ft | 484 kts | 322° |
| 2026-04-22 01:56 | -0.45869 | -49.97806 | 34856 ft | 484 kts | 322° |
| 2026-04-22 01:57 | -0.43259 | -49.99931 | 35150 ft | 483 kts | 322° |
| 2026-04-22 01:57 | -0.40654 | -50.02052 | 35453 ft | 482 kts | 322° |
| 2026-04-22 01:57 | -0.38057 | -50.04166 | 35754 ft | 481 kts | 322° |
| 2026-04-22 01:57 | -0.35468 | -50.06274 | 36059 ft | 480 kts | 322° |
| 2026-04-22 01:58 | -0.32878 | -50.08382 | 36350 ft | 479 kts | 322° |
| 2026-04-22 01:58 | -0.30324 | -50.10461 | 36639 ft | 478 kts | 322° |
| 2026-04-22 01:58 | -0.27749 | -50.12557 | 36917 ft | 478 kts | 322° |
| 2026-04-22 01:58 | -0.25175 | -50.14653 | 37212 ft | 477 kts | 322° |
| 2026-04-22 01:59 | -0.22609 | -50.16742 | 37469 ft | 476 kts | 321° |
| 2026-04-22 01:59 | -0.20040 | -50.18833 | 37726 ft | 475 kts | 321° |
| 2026-04-22 01:59 | -0.17484 | -50.20914 | 37959 ft | 474 kts | 321° |
| 2026-04-22 01:59 | -0.14922 | -50.22999 | 38006 ft | 475 kts | 321° |
| 2026-04-22 02:00 | -0.09818 | -50.27155 | 37987 ft | 472 kts | 321° |
| 2026-04-22 02:00 | -0.04723 | -50.31302 | 37986 ft | 472 kts | 321° |
| 2026-04-22 02:01 | 0.00375 | -50.35453 | 37978 ft | 472 kts | 321° |
| 2026-04-22 02:01 | 0.05436 | -50.39572 | 37980 ft | 472 kts | 321° |
| 2026-04-22 02:02 | 0.10531 | -50.43720 | 37978 ft | 472 kts | 321° |
| 2026-04-22 02:02 | 0.15636 | -50.47875 | 37980 ft | 473 kts | 321° |
| 2026-04-22 02:03 | 0.20738 | -50.52028 | 37980 ft | 473 kts | 321° |
| 2026-04-22 02:03 | 0.25844 | -50.56185 | 37980 ft | 473 kts | 321° |
| 2026-04-22 02:04 | 0.33494 | -50.62413 | 37977 ft | 474 kts | 322° |
| 2026-04-22 02:05 | 0.38577 | -50.66551 | 37981 ft | 474 kts | 322° |
| 2026-04-22 02:05 | 0.43702 | -50.70723 | 37981 ft | 475 kts | 322° |
| 2026-04-22 02:06 | 0.48826 | -50.74895 | 37983 ft | 475 kts | 322° |
| 2026-04-22 02:06 | 0.53947 | -50.79064 | 37981 ft | 475 kts | 322° |
| 2026-04-22 02:07 | 0.59075 | -50.83239 | 37980 ft | 475 kts | 322° |
| 2026-04-22 02:07 | 0.64193 | -50.87406 | 37982 ft | 475 kts | 322° |
| 2026-04-22 02:08 | 0.69311 | -50.91574 | 37980 ft | 474 kts | 321° |
| 2026-04-22 02:08 | 0.74426 | -50.95736 | 37983 ft | 473 kts | 322° |
| 2026-04-22 02:09 | 0.79538 | -50.99832 | 37983 ft | 473 kts | 322° |
| 2026-04-22 02:09 | 0.84672 | -51.03950 | 37985 ft | 473 kts | 322° |
| 2026-04-22 02:10 | 0.89818 | -51.08078 | 37987 ft | 473 kts | 322° |
| 2026-04-22 02:10 | 0.94956 | -51.12198 | 37985 ft | 474 kts | 322° |
| 2026-04-22 02:11 | 1.00102 | -51.16326 | 37986 ft | 474 kts | 322° |
| 2026-04-22 02:11 | 1.05239 | -51.20447 | 37984 ft | 474 kts | 322° |
| 2026-04-22 02:12 | 1.10353 | -51.24550 | 37985 ft | 474 kts | 322° |
| 2026-04-22 02:12 | 1.15492 | -51.28673 | 37985 ft | 474 kts | 322° |
| 2026-04-22 02:13 | 1.20641 | -51.32804 | 37980 ft | 474 kts | 322° |
| 2026-04-22 02:13 | 1.25797 | -51.36941 | 37989 ft | 475 kts | 322° |
| 2026-04-22 02:14 | 1.30919 | -51.41050 | 37988 ft | 475 kts | 322° |
| 2026-04-22 02:14 | 1.36022 | -51.45145 | 37991 ft | 475 kts | 322° |
| 2026-04-22 02:15 | 1.41168 | -51.49274 | 37989 ft | 475 kts | 322° |
| 2026-04-22 02:15 | 1.46323 | -51.53411 | 37990 ft | 475 kts | 322° |
| 2026-04-22 02:16 | 1.51480 | -51.57550 | 37994 ft | 475 kts | 321° |
| 2026-04-22 02:16 | 1.56610 | -51.61667 | 37988 ft | 472 kts | 321° |
| 2026-04-22 02:17 | 1.61728 | -51.65776 | 37994 ft | 472 kts | 321° |
| 2026-04-22 02:17 | 1.66858 | -51.69893 | 37992 ft | 472 kts | 321° |
| 2026-04-22 02:18 | 1.71941 | -51.73974 | 37993 ft | 472 kts | 321° |
| 2026-04-22 02:18 | 1.77059 | -51.78083 | 37994 ft | 472 kts | 321° |
| 2026-04-22 02:19 | 1.82187 | -51.82200 | 38000 ft | 471 kts | 321° |
| 2026-04-22 02:19 | 1.87280 | -51.86289 | 37991 ft | 469 kts | 321° |
| 2026-04-22 02:20 | 1.92376 | -51.90381 | 37993 ft | 469 kts | 321° |
| 2026-04-22 02:20 | 1.97471 | -51.94473 | 37993 ft | 469 kts | 321° |
| 2026-04-22 02:21 | 2.02569 | -51.98568 | 37993 ft | 469 kts | 321° |
| 2026-04-22 02:21 | 2.07657 | -52.02654 | 37990 ft | 469 kts | 321° |
| 2026-04-22 02:22 | 2.12717 | -52.06719 | 37991 ft | 470 kts | 321° |
| 2026-04-22 02:22 | 2.17816 | -52.10815 | 37987 ft | 470 kts | 321° |
| 2026-04-22 02:23 | 2.22918 | -52.14914 | 37989 ft | 470 kts | 321° |
| 2026-04-22 02:23 | 2.28016 | -52.19010 | 37987 ft | 470 kts | 321° |
| 2026-04-22 02:24 | 2.33081 | -52.23080 | 37984 ft | 470 kts | 321° |
| 2026-04-22 02:24 | 2.38174 | -52.27173 | 37984 ft | 470 kts | 321° |
| 2026-04-22 02:25 | 2.43267 | -52.31268 | 37981 ft | 470 kts | 321° |
| 2026-04-22 02:25 | 2.48380 | -52.35377 | 37988 ft | 472 kts | 321° |
| 2026-04-22 02:26 | 2.53509 | -52.39500 | 37983 ft | 472 kts | 321° |
| 2026-04-22 02:26 | 2.58617 | -52.43607 | 37979 ft | 472 kts | 321° |
| 2026-04-22 02:27 | 2.63736 | -52.47723 | 37975 ft | 472 kts | 321° |
| 2026-04-22 02:27 | 2.68593 | -52.52111 | 37983 ft | 471 kts | 315° |
| 2026-04-22 02:28 | 2.73308 | -52.56687 | 37981 ft | 473 kts | 316° |
| 2026-04-22 02:28 | 2.78030 | -52.61225 | 37976 ft | 473 kts | 316° |
| 2026-04-22 02:29 | 2.82708 | -52.65721 | 37976 ft | 473 kts | 316° |
| 2026-04-22 02:29 | 2.87428 | -52.70256 | 37977 ft | 473 kts | 316° |
| 2026-04-22 02:30 | 2.92176 | -52.74821 | 37973 ft | 473 kts | 316° |
| 2026-04-22 02:30 | 2.96927 | -52.79388 | 37977 ft | 474 kts | 316° |
| 2026-04-22 02:31 | 3.01683 | -52.83960 | 37975 ft | 474 kts | 316° |
| 2026-04-22 02:31 | 3.06435 | -52.88529 | 37975 ft | 474 kts | 316° |
| 2026-04-22 02:32 | 3.11201 | -52.93114 | 37980 ft | 475 kts | 316° |
| 2026-04-22 02:32 | 3.15940 | -52.97672 | 37982 ft | 475 kts | 316° |
| 2026-04-22 02:33 | 3.20736 | -53.02285 | 37980 ft | 475 kts | 316° |
| 2026-04-22 02:33 | 3.25493 | -53.06861 | 37983 ft | 475 kts | 316° |
| 2026-04-22 02:34 | 3.30226 | -53.11416 | 37982 ft | 475 kts | 316° |
| 2026-04-22 02:34 | 3.34991 | -53.16001 | 37981 ft | 475 kts | 316° |
| 2026-04-22 02:35 | 3.39767 | -53.20597 | 37979 ft | 476 kts | 316° |
| 2026-04-22 02:35 | 3.44544 | -53.25196 | 37980 ft | 476 kts | 316° |
| 2026-04-22 02:36 | 3.49288 | -53.29763 | 37980 ft | 477 kts | 316° |
| 2026-04-22 02:36 | 3.54077 | -53.34375 | 37979 ft | 477 kts | 316° |
| 2026-04-22 02:37 | 3.58853 | -53.38975 | 37985 ft | 477 kts | 316° |
| 2026-04-22 02:37 | 3.63634 | -53.43579 | 37982 ft | 477 kts | 316° |
| 2026-04-22 02:38 | 3.68408 | -53.48190 | 37979 ft | 477 kts | 316° |
| 2026-04-22 02:38 | 3.72376 | -53.52026 | 37981 ft | 478 kts | 316° |
| 2026-04-22 02:39 | 3.77156 | -53.56648 | 37982 ft | 477 kts | 316° |
| 2026-04-22 02:39 | 3.81936 | -53.61270 | 37981 ft | 477 kts | 316° |
| 2026-04-22 02:40 | 3.86714 | -53.65891 | 37980 ft | 477 kts | 316° |
| 2026-04-22 02:40 | 3.91490 | -53.70510 | 37769 ft | 474 kts | 316° |
| 2026-04-22 02:40 | 3.93865 | -53.72809 | 36906 ft | 478 kts | 316° |
| 2026-04-22 02:41 | 3.96277 | -53.75143 | 35966 ft | 485 kts | 315° |
| 2026-04-22 02:41 | 3.98696 | -53.77482 | 35417 ft | 482 kts | 315° |
| 2026-04-22 02:41 | 4.01096 | -53.79804 | 35012 ft | 476 kts | 315° |
| 2026-04-22 02:41 | 4.03465 | -53.82097 | 34559 ft | 472 kts | 315° |
| 2026-04-22 02:42 | 4.05822 | -53.84378 | 34027 ft | 470 kts | 315° |
| 2026-04-22 02:42 | 4.08174 | -53.86654 | 33377 ft | 470 kts | 315° |
| 2026-04-22 02:42 | 4.10523 | -53.88928 | 32812 ft | 468 kts | 315° |
| 2026-04-22 02:42 | 4.12828 | -53.91160 | 32303 ft | 464 kts | 315° |
| 2026-04-22 02:43 | 4.15139 | -53.93397 | 31810 ft | 461 kts | 315° |
| 2026-04-22 02:43 | 4.17445 | -53.95629 | 31294 ft | 459 kts | 315° |
| 2026-04-22 02:43 | 4.19729 | -53.97841 | 30778 ft | 456 kts | 315° |
| 2026-04-22 02:43 | 4.22011 | -54.00052 | 30265 ft | 455 kts | 315° |
| 2026-04-22 02:44 | 4.24283 | -54.02252 | 29709 ft | 452 kts | 315° |
| 2026-04-22 02:44 | 4.26542 | -54.04440 | 29151 ft | 449 kts | 315° |
| 2026-04-22 02:44 | 4.28779 | -54.06607 | 28659 ft | 445 kts | 315° |
| 2026-04-22 02:44 | 4.30998 | -54.08756 | 28199 ft | 441 kts | 315° |
| 2026-04-22 02:45 | 4.33198 | -54.10887 | 27726 ft | 437 kts | 315° |
| 2026-04-22 02:45 | 4.35350 | -54.12973 | 27269 ft | 433 kts | 315° |
| 2026-04-22 02:45 | 4.37507 | -54.15062 | 26819 ft | 429 kts | 315° |
| 2026-04-22 02:45 | 4.39648 | -54.17137 | 26369 ft | 426 kts | 315° |
| 2026-04-22 02:46 | 4.41767 | -54.19191 | 25930 ft | 422 kts | 315° |
| 2026-04-22 02:46 | 4.43870 | -54.21229 | 25494 ft | 419 kts | 315° |
| 2026-04-22 02:46 | 4.45961 | -54.23256 | 25065 ft | 416 kts | 315° |
| 2026-04-22 02:46 | 4.48029 | -54.25261 | 24639 ft | 413 kts | 316° |
| 2026-04-22 02:47 | 4.50084 | -54.27253 | 24220 ft | 410 kts | 316° |
| 2026-04-22 02:47 | 4.52127 | -54.29234 | 23815 ft | 407 kts | 316° |
| 2026-04-22 02:47 | 4.54152 | -54.31197 | 23357 ft | 404 kts | 316° |
| 2026-04-22 02:47 | 4.56169 | -54.33153 | 22898 ft | 401 kts | 316° |
| 2026-04-22 02:48 | 4.58162 | -54.35086 | 22496 ft | 397 kts | 316° |
| 2026-04-22 02:48 | 4.60121 | -54.36986 | 22091 ft | 393 kts | 316° |
| 2026-04-22 02:48 | 4.62075 | -54.38881 | 21713 ft | 389 kts | 316° |
| 2026-04-22 02:48 | 4.64013 | -54.40761 | 21307 ft | 386 kts | 316° |
| 2026-04-22 02:49 | 4.65959 | -54.42649 | 20916 ft | 383 kts | 315° |
| 2026-04-22 02:49 | 4.67655 | -54.44634 | 20472 ft | 381 kts | 304° |
| 2026-04-22 02:49 | 4.69193 | -54.46782 | 20104 ft | 378 kts | 306° |
| 2026-04-22 02:49 | 4.70745 | -54.48901 | 19751 ft | 374 kts | 306° |
| 2026-04-22 02:50 | 4.72285 | -54.51004 | 19380 ft | 372 kts | 306° |
| 2026-04-22 02:50 | 4.73808 | -54.53082 | 19005 ft | 370 kts | 305° |
| 2026-04-22 02:50 | 4.75330 | -54.55159 | 18635 ft | 368 kts | 305° |
| 2026-04-22 02:50 | 4.76843 | -54.57224 | 18259 ft | 366 kts | 305° |
| 2026-04-22 02:51 | 4.78346 | -54.59278 | 17839 ft | 365 kts | 306° |
| 2026-04-22 02:51 | 4.79843 | -54.61322 | 17454 ft | 362 kts | 305° |
| 2026-04-22 02:51 | 4.81334 | -54.63357 | 17079 ft | 359 kts | 305° |
| 2026-04-22 02:51 | 4.82809 | -54.65371 | 16717 ft | 357 kts | 306° |
| 2026-04-22 02:52 | 4.84272 | -54.67369 | 16351 ft | 354 kts | 306° |
| 2026-04-22 02:52 | 4.85725 | -54.69353 | 15992 ft | 351 kts | 306° |
| 2026-04-22 02:52 | 4.87151 | -54.71300 | 15638 ft | 349 kts | 306° |
| 2026-04-22 02:52 | 4.88586 | -54.73261 | 15282 ft | 347 kts | 306° |
| 2026-04-22 02:53 | 4.90009 | -54.75205 | 14925 ft | 345 kts | 306° |
| 2026-04-22 02:53 | 4.91424 | -54.77138 | 14565 ft | 343 kts | 306° |
| 2026-04-22 02:53 | 4.92835 | -54.79065 | 14224 ft | 341 kts | 306° |
| 2026-04-22 02:53 | 4.94233 | -54.80978 | 13881 ft | 340 kts | 306° |
| 2026-04-22 02:54 | 4.95624 | -54.82879 | 13496 ft | 338 kts | 306° |
| 2026-04-22 02:54 | 4.97020 | -54.84787 | 13119 ft | 337 kts | 306° |
| 2026-04-22 02:54 | 4.98398 | -54.86670 | 12766 ft | 334 kts | 306° |
| 2026-04-22 02:54 | 4.99766 | -54.88541 | 12418 ft | 332 kts | 306° |
| 2026-04-22 02:55 | 5.01126 | -54.90399 | 12076 ft | 329 kts | 306° |
| 2026-04-22 02:55 | 5.02474 | -54.92242 | 11737 ft | 327 kts | 306° |
| 2026-04-22 02:55 | 5.03815 | -54.94075 | 11407 ft | 324 kts | 306° |
| 2026-04-22 02:55 | 5.05129 | -54.95871 | 11082 ft | 323 kts | 306° |
| 2026-04-22 02:56 | 5.06452 | -54.97681 | 10745 ft | 321 kts | 306° |
| 2026-04-22 02:56 | 5.07767 | -54.99479 | 10402 ft | 319 kts | 306° |
| 2026-04-22 02:56 | 5.09076 | -55.01270 | 10131 ft | 315 kts | 306° |
| 2026-04-22 02:56 | 5.10354 | -55.03017 | 9962 ft | 307 kts | 306° |
| 2026-04-22 02:57 | 5.11608 | -55.04733 | 9676 ft | 300 kts | 306° |
| 2026-04-22 02:57 | 5.12834 | -55.06409 | 9345 ft | 298 kts | 306° |
| 2026-04-22 02:57 | 5.14059 | -55.08085 | 9009 ft | 297 kts | 306° |
| 2026-04-22 02:57 | 5.15278 | -55.09753 | 8683 ft | 296 kts | 306° |
| 2026-04-22 02:58 | 5.16492 | -55.11413 | 8367 ft | 294 kts | 306° |
| 2026-04-22 02:58 | 5.17697 | -55.13061 | 8056 ft | 292 kts | 307° |
| 2026-04-22 02:58 | 5.18896 | -55.14702 | 7742 ft | 291 kts | 307° |
| 2026-04-22 02:58 | 5.20092 | -55.16339 | 7431 ft | 290 kts | 307° |
| 2026-04-22 02:59 | 5.21271 | -55.17952 | 7126 ft | 289 kts | 307° |
| 2026-04-22 02:59 | 5.22469 | -55.19593 | 6810 ft | 288 kts | 307° |
| 2026-04-22 02:59 | 5.23650 | -55.21210 | 6502 ft | 287 kts | 307° |
| 2026-04-22 02:59 | 5.24817 | -55.22807 | 6178 ft | 287 kts | 307° |
| 2026-04-22 03:00 | 5.25985 | -55.24407 | 5844 ft | 281 kts | 307° |
| 2026-04-22 03:00 | 5.27134 | -55.25979 | 5552 ft | 279 kts | 308° |
| 2026-04-22 03:00 | 5.28277 | -55.27545 | 5248 ft | 278 kts | 307° |
| 2026-04-22 03:00 | 5.29418 | -55.29107 | 4958 ft | 276 kts | 308° |
| 2026-04-22 03:01 | 5.30548 | -55.30655 | 4717 ft | 273 kts | 308° |
| 2026-04-22 03:01 | 5.31654 | -55.32169 | 4577 ft | 265 kts | 308° |
| 2026-04-22 03:01 | 5.32714 | -55.33620 | 4425 ft | 250 kts | 308° |
| 2026-04-22 03:01 | 5.33711 | -55.34988 | 4287 ft | 235 kts | 308° |
| 2026-04-22 03:02 | 5.34756 | -55.36174 | 4174 ft | 219 kts | 328° |
| 2026-04-22 03:02 | 5.36111 | -55.36690 | 3987 ft | 204 kts | 355° |
| 2026-04-22 03:02 | 5.37500 | -55.36791 | 3755 ft | 197 kts | 0° |
| 2026-04-22 03:02 | 5.38849 | -55.36851 | 3527 ft | 191 kts | 1° |
| 2026-04-22 03:03 | 5.40150 | -55.36891 | 3367 ft | 182 kts | 2° |
| 2026-04-22 03:03 | 5.41383 | -55.36917 | 3238 ft | 178 kts | 3° |
| 2026-04-22 03:03 | 5.42620 | -55.36937 | 3159 ft | 171 kts | 3° |
| 2026-04-22 03:03 | 5.43751 | -55.36806 | 3055 ft | 162 kts | 27° |
| 2026-04-22 03:04 | 5.44574 | -55.36140 | 2821 ft | 146 kts | 58° |
| 2026-04-22 03:04 | 5.44916 | -55.35223 | 2567 ft | 138 kts | 81° |
| 2026-04-22 03:04 | 5.45012 | -55.34272 | 2449 ft | 136 kts | 83° |
| 2026-04-22 03:04 | 5.45114 | -55.33320 | 2497 ft | 137 kts | 84° |
| 2026-04-22 03:05 | 5.45182 | -55.32365 | 2423 ft | 137 kts | 86° |
| 2026-04-22 03:05 | 5.45206 | -55.31408 | 2284 ft | 137 kts | 88° |
| 2026-04-22 03:05 | 5.45213 | -55.30466 | 2116 ft | 137 kts | 89° |
| 2026-04-22 03:05 | 5.45219 | -55.29501 | 1998 ft | 136 kts | 89° |
| 2026-04-22 03:06 | 5.45225 | -55.28566 | 1967 ft | 136 kts | 88° |
| 2026-04-22 03:06 | 5.45240 | -55.27624 | 1968 ft | 137 kts | 87° |
| 2026-04-22 03:06 | 5.45295 | -55.26603 | 1537 ft | 153 kts | 87° |
| 2026-04-22 03:06 | 5.45308 | -55.25547 | 1040 ft | 152 kts | 90° |
| 2026-04-22 03:07 | 5.45282 | -55.24513 | 679 ft | 144 kts | 91° |
| 2026-04-22 03:07 | 5.45294 | -55.23493 | 521 ft | 156 kts | 89° |
| 2026-04-22 03:07 | 5.45282 | -55.22428 | 372 ft | 149 kts | 92° |
| 2026-04-22 03:07 | 5.45278 | -55.21415 | 253 ft | 147 kts | 89° |
| 2026-04-22 03:08 | 5.45289 | -55.20409 | 110 ft | 147 kts | 90° |
| 2026-04-22 03:08 | 5.45288 | -55.19446 | 67 ft | 116 kts | 88° |
| 2026-04-22 03:08 | 5.45295 | -55.18875 | 59 ft | 51 kts | 88° |
| 2026-04-22 03:08 | 5.45295 | -55.18532 | 59 ft | 24 kts | 86° |
| 2026-04-22 03:09 | 5.45305 | -55.18472 | 59 ft | 2 kts | 130° |
| 2026-04-22 03:09 | 5.45282 | -55.18482 | 59 ft | 7 kts | 232° |
| 2026-04-22 03:09 | 5.45280 | -55.18575 | 58 ft | 22 kts | 271° |
| 2026-04-22 03:09 | 5.45282 | -55.18762 | 53 ft | 30 kts | 271° |
| 2026-04-22 03:10 | 5.45284 | -55.18905 | 57 ft | 21 kts | 272° |
| 2026-04-22 03:10 | 5.45290 | -55.19065 | 62 ft | 19 kts | 274° |
| 2026-04-22 03:10 | 5.45289 | -55.19216 | 63 ft | 25 kts | 267° |
| 2026-04-22 03:10 | 5.45290 | -55.19391 | 66 ft | 26 kts | 270° |
| 2026-04-22 03:11 | 5.45284 | -55.19564 | 66 ft | 25 kts | 265° |
| 2026-04-22 03:11 | 5.45283 | -55.19732 | 58 ft | 25 kts | 272° |
| 2026-04-22 03:11 | 5.45285 | -55.19863 | 60 ft | 14 kts | 268° |
| 2026-04-22 03:11 | 5.45301 | -55.19962 | 58 ft | 15 kts | 319° |
| 2026-04-22 03:12 | 5.45395 | -55.20004 | 58 ft | 14 kts | 354° |
| 2026-04-22 03:12 | 5.45529 | -55.20007 | 59 ft | 0 kts | 359° |